Aruana, Brazil
Current Conditions -  °F | °C
As of 3:00 PM on Wednesday 26 Nov 2014 (Local Time) from SBAN Reporting Station
Light Rain Light Rain  
Wind Chill: 70°   Ceiling: 600
Heat Index: 70°   Visibility: 2.5mi
Dew Point: 66°   Wind: 3mph
Humidity: 88%   Direction: 330°NNW
Pressure: NA   Gusts: NA
Location:  14.92°S, 51.08°W
Report Text: SBAN 261700Z 33003KT 4000 -RA BKN006 SCT010 FEW020TCU 21/19 Q1016
Loading
Personal Weather Stations






























Interactive Weather Map New forecast layout! Learn more

10-Day Weather Forecast

Advertisements
Track Severe Weather on mobile